sensor_id;sensor_type;location;lat;lon;timestamp;P1;durP1;ratioP1;P2;durP2;ratioP2
59273;SDS011;45044;41.572;24.730;2023-12-20T00:02:17;76.53;;;38.47;;
59273;SDS011;45044;41.572;24.730;2023-12-20T00:04:44;79.83;;;40.73;;
59273;SDS011;45044;41.572;24.730;2023-12-20T00:07:11;66.77;;;35.17;;
59273;SDS011;45044;41.572;24.730;2023-12-20T00:09:37;68.13;;;36.47;;
59273;SDS011;45044;41.572;24.730;2023-12-20T00:12:04;70.00;;;36.10;;
59273;SDS011;45044;41.572;24.730;2023-12-20T00:14:32;67.93;;;36.83;;
59273;SDS011;45044;41.572;24.730;2023-12-20T00:16:58;70.20;;;37.40;;
59273;SDS011;45044;41.572;24.730;2023-12-20T00:19:25;61.33;;;32.10;;
59273;SDS011;45044;41.572;24.730;2023-12-20T00:21:52;57.93;;;31.60;;
59273;SDS011;45044;41.572;24.730;2023-12-20T00:24:19;53.33;;;29.93;;
59273;SDS011;45044;41.572;24.730;2023-12-20T00:26:46;63.80;;;33.10;;
59273;SDS011;45044;41.572;24.730;2023-12-20T00:29:13;59.13;;;33.03;;
59273;SDS011;45044;41.572;24.730;2023-12-20T00:31:40;71.10;;;38.50;;
59273;SDS011;45044;41.572;24.730;2023-12-20T00:34:07;61.40;;;33.87;;
59273;SDS011;45044;41.572;24.730;2023-12-20T00:36:34;67.20;;;35.80;;
59273;SDS011;45044;41.572;24.730;2023-12-20T00:39:05;48.77;;;26.23;;
59273;SDS011;45044;41.572;24.730;2023-12-20T00:41:33;46.70;;;28.10;;
59273;SDS011;45044;41.572;24.730;2023-12-20T00:44:00;46.10;;;24.00;;
59273;SDS011;45044;41.572;24.730;2023-12-20T00:46:27;51.87;;;29.03;;
59273;SDS011;45044;41.572;24.730;2023-12-20T00:48:54;57.50;;;30.00;;
59273;SDS011;45044;41.572;24.730;2023-12-20T00:51:20;56.27;;;28.93;;
59273;SDS011;45044;41.572;24.730;2023-12-20T00:53:49;58.60;;;31.53;;
59273;SDS011;45044;41.572;24.730;2023-12-20T00:56:17;58.70;;;31.17;;
59273;SDS011;45044;41.572;24.730;2023-12-20T00:58:43;52.20;;;28.57;;
59273;SDS011;45044;41.572;24.730;2023-12-20T01:01:11;46.47;;;26.23;;
59273;SDS011;45044;41.572;24.730;2023-12-20T01:03:39;40.97;;;23.53;;
59273;SDS011;45044;41.572;24.730;2023-12-20T01:06:06;36.17;;;21.70;;
59273;SDS011;45044;41.572;24.730;2023-12-20T01:08:33;39.27;;;22.50;;
59273;SDS011;45044;41.572;24.730;2023-12-20T01:11:03;38.73;;;21.77;;
59273;SDS011;45044;41.572;24.730;2023-12-20T01:13:32;39.47;;;22.43;;
59273;SDS011;45044;41.572;24.730;2023-12-20T01:15:58;43.77;;;22.87;;
59273;SDS011;45044;41.572;24.730;2023-12-20T01:18:25;43.03;;;23.50;;
59273;SDS011;45044;41.572;24.730;2023-12-20T01:20:52;37.50;;;21.97;;
59273;SDS011;45044;41.572;24.730;2023-12-20T01:23:19;42.43;;;22.87;;
59273;SDS011;45044;41.572;24.730;2023-12-20T01:25:46;49.73;;;24.57;;
59273;SDS011;45044;41.572;24.730;2023-12-20T01:28:12;48.63;;;22.93;;
59273;SDS011;45044;41.572;24.730;2023-12-20T01:30:39;42.40;;;21.73;;
59273;SDS011;45044;41.572;24.730;2023-12-20T01:33:06;37.80;;;20.20;;
59273;SDS011;45044;41.572;24.730;2023-12-20T01:35:33;40.17;;;20.87;;
59273;SDS011;45044;41.572;24.730;2023-12-20T01:38:00;44.67;;;21.73;;
59273;SDS011;45044;41.572;24.730;2023-12-20T01:40:26;38.57;;;21.10;;
59273;SDS011;45044;41.572;24.730;2023-12-20T01:43:06;42.23;;;22.83;;
59273;SDS011;45044;41.572;24.730;2023-12-20T01:45:35;41.67;;;22.40;;
59273;SDS011;45044;41.572;24.730;2023-12-20T01:48:02;50.47;;;23.10;;
59273;SDS011;45044;41.572;24.730;2023-12-20T01:50:31;63.40;;;33.30;;
59273;SDS011;45044;41.572;24.730;2023-12-20T01:52:59;39.97;;;22.13;;
59273;SDS011;45044;41.572;24.730;2023-12-20T01:55:29;41.17;;;21.60;;
59273;SDS011;45044;41.572;24.730;2023-12-20T01:57:59;48.93;;;26.10;;
59273;SDS011;45044;41.572;24.730;2023-12-20T02:00:27;49.13;;;28.00;;
59273;SDS011;45044;41.572;24.730;2023-12-20T02:02:55;53.50;;;24.43;;
59273;SDS011;45044;41.572;24.730;2023-12-20T02:05:22;52.27;;;27.73;;
59273;SDS011;45044;41.572;24.730;2023-12-20T02:07:50;53.53;;;26.53;;
59273;SDS011;45044;41.572;24.730;2023-12-20T02:10:18;50.40;;;25.20;;
59273;SDS011;45044;41.572;24.730;2023-12-20T02:12:44;46.03;;;24.10;;
59273;SDS011;45044;41.572;24.730;2023-12-20T02:15:11;44.10;;;23.47;;
59273;SDS011;45044;41.572;24.730;2023-12-20T02:17:38;38.97;;;21.13;;
59273;SDS011;45044;41.572;24.730;2023-12-20T02:20:06;38.30;;;20.73;;
59273;SDS011;45044;41.572;24.730;2023-12-20T02:22:34;40.13;;;20.40;;
59273;SDS011;45044;41.572;24.730;2023-12-20T02:25:01;40.30;;;20.97;;
59273;SDS011;45044;41.572;24.730;2023-12-20T02:27:28;42.90;;;22.70;;
59273;SDS011;45044;41.572;24.730;2023-12-20T02:29:56;40.63;;;24.70;;
59273;SDS011;45044;41.572;24.730;2023-12-20T02:32:23;77.57;;;39.83;;
59273;SDS011;45044;41.572;24.730;2023-12-20T02:34:54;67.10;;;35.17;;
59273;SDS011;45044;41.572;24.730;2023-12-20T02:37:21;64.77;;;30.13;;
59273;SDS011;45044;41.572;24.730;2023-12-20T02:39:48;50.63;;;25.63;;
59273;SDS011;45044;41.572;24.730;2023-12-20T02:42:16;61.57;;;29.23;;
59273;SDS011;45044;41.572;24.730;2023-12-20T02:44:43;57.63;;;31.93;;
59273;SDS011;45044;41.572;24.730;2023-12-20T02:47:11;58.33;;;30.73;;
59273;SDS011;45044;41.572;24.730;2023-12-20T02:49:37;46.57;;;25.50;;
59273;SDS011;45044;41.572;24.730;2023-12-20T02:52:04;53.03;;;25.77;;
59273;SDS011;45044;41.572;24.730;2023-12-20T02:54:32;40.77;;;22.33;;
59273;SDS011;45044;41.572;24.730;2023-12-20T02:56:58;32.00;;;17.07;;
59273;SDS011;45044;41.572;24.730;2023-12-20T02:59:25;31.90;;;19.07;;
59273;SDS011;45044;41.572;24.730;2023-12-20T03:01:52;36.67;;;19.90;;
59273;SDS011;45044;41.572;24.730;2023-12-20T03:04:19;32.13;;;20.63;;
59273;SDS011;45044;41.572;24.730;2023-12-20T03:06:46;35.90;;;20.73;;
59273;SDS011;45044;41.572;24.730;2023-12-20T03:09:13;33.70;;;21.43;;
59273;SDS011;45044;41.572;24.730;2023-12-20T03:11:40;40.00;;;22.37;;
59273;SDS011;45044;41.572;24.730;2023-12-20T03:14:06;34.37;;;20.37;;
59273;SDS011;45044;41.572;24.730;2023-12-20T03:16:34;40.77;;;22.03;;
59273;SDS011;45044;41.572;24.730;2023-12-20T03:19:02;39.97;;;22.80;;
59273;SDS011;45044;41.572;24.730;2023-12-20T03:21:29;45.57;;;24.00;;
59273;SDS011;45044;41.572;24.730;2023-12-20T03:23:56;45.57;;;25.77;;
59273;SDS011;45044;41.572;24.730;2023-12-20T03:26:22;51.83;;;27.83;;
59273;SDS011;45044;41.572;24.730;2023-12-20T03:28:49;36.43;;;21.63;;
59273;SDS011;45044;41.572;24.730;2023-12-20T03:31:16;39.37;;;22.83;;
59273;SDS011;45044;41.572;24.730;2023-12-20T03:33:43;40.90;;;22.90;;
59273;SDS011;45044;41.572;24.730;2023-12-20T03:36:10;39.80;;;19.70;;
59273;SDS011;45044;41.572;24.730;2023-12-20T03:38:36;38.27;;;19.60;;
59273;SDS011;45044;41.572;24.730;2023-12-20T03:41:04;40.63;;;20.37;;
59273;SDS011;45044;41.572;24.730;2023-12-20T03:43:31;44.10;;;21.70;;
59273;SDS011;45044;41.572;24.730;2023-12-20T03:45:58;41.37;;;20.73;;
59273;SDS011;45044;41.572;24.730;2023-12-20T03:48:26;39.40;;;20.53;;
59273;SDS011;45044;41.572;24.730;2023-12-20T03:50:53;38.50;;;20.00;;
59273;SDS011;45044;41.572;24.730;2023-12-20T03:53:19;42.50;;;21.43;;
59273;SDS011;45044;41.572;24.730;2023-12-20T03:55:47;55.17;;;23.80;;
59273;SDS011;45044;41.572;24.730;2023-12-20T03:58:13;39.53;;;21.33;;
59273;SDS011;45044;41.572;24.730;2023-12-20T04:00:40;53.37;;;26.33;;
59273;SDS011;45044;41.572;24.730;2023-12-20T04:03:07;44.20;;;23.70;;
59273;SDS011;45044;41.572;24.730;2023-12-20T04:05:34;40.27;;;22.80;;
59273;SDS011;45044;41.572;24.730;2023-12-20T04:08:01;45.03;;;21.53;;
59273;SDS011;45044;41.572;24.730;2023-12-20T04:10:28;44.83;;;22.33;;
59273;SDS011;45044;41.572;24.730;2023-12-20T04:12:56;44.70;;;21.93;;
59273;SDS011;45044;41.572;24.730;2023-12-20T04:15:24;42.13;;;24.43;;
59273;SDS011;45044;41.572;24.730;2023-12-20T04:17:52;43.73;;;22.73;;
59273;SDS011;45044;41.572;24.730;2023-12-20T04:20:19;41.80;;;21.37;;
59273;SDS011;45044;41.572;24.730;2023-12-20T04:22:45;45.03;;;22.10;;
59273;SDS011;45044;41.572;24.730;2023-12-20T04:25:12;53.70;;;24.93;;
59273;SDS011;45044;41.572;24.730;2023-12-20T04:27:41;44.93;;;21.80;;
59273;SDS011;45044;41.572;24.730;2023-12-20T04:30:08;44.13;;;23.10;;
59273;SDS011;45044;41.572;24.730;2023-12-20T04:32:35;46.83;;;21.53;;
59273;SDS011;45044;41.572;24.730;2023-12-20T04:35:02;45.30;;;21.93;;
59273;SDS011;45044;41.572;24.730;2023-12-20T04:37:31;49.23;;;24.73;;
59273;SDS011;45044;41.572;24.730;2023-12-20T04:40:00;50.97;;;26.10;;
59273;SDS011;45044;41.572;24.730;2023-12-20T04:42:27;59.23;;;25.93;;
59273;SDS011;45044;41.572;24.730;2023-12-20T04:44:54;52.80;;;22.70;;
59273;SDS011;45044;41.572;24.730;2023-12-20T04:47:21;47.63;;;23.73;;
59273;SDS011;45044;41.572;24.730;2023-12-20T04:49:48;56.47;;;27.10;;
59273;SDS011;45044;41.572;24.730;2023-12-20T04:52:15;56.87;;;28.20;;
59273;SDS011;45044;41.572;24.730;2023-12-20T04:54:42;58.30;;;25.97;;
59273;SDS011;45044;41.572;24.730;2023-12-20T04:57:10;47.40;;;26.43;;
59273;SDS011;45044;41.572;24.730;2023-12-20T04:59:40;56.00;;;28.90;;
59273;SDS011;45044;41.572;24.730;2023-12-20T05:02:08;42.50;;;25.97;;
59273;SDS011;45044;41.572;24.730;2023-12-20T05:04:34;48.47;;;27.13;;
59273;SDS011;45044;41.572;24.730;2023-12-20T05:07:02;48.13;;;28.03;;
59273;SDS011;45044;41.572;24.730;2023-12-20T05:09:31;54.80;;;30.67;;
59273;SDS011;45044;41.572;24.730;2023-12-20T05:11:59;50.53;;;29.40;;
59273;SDS011;45044;41.572;24.730;2023-12-20T05:14:27;51.00;;;31.57;;
59273;SDS011;45044;41.572;24.730;2023-12-20T05:16:54;47.20;;;28.67;;
59273;SDS011;45044;41.572;24.730;2023-12-20T05:19:20;58.30;;;34.17;;
59273;SDS011;45044;41.572;24.730;2023-12-20T05:21:47;72.97;;;44.67;;
59273;SDS011;45044;41.572;24.730;2023-12-20T05:24:16;62.83;;;36.93;;
59273;SDS011;45044;41.572;24.730;2023-12-20T05:26:45;69.30;;;39.37;;
59273;SDS011;45044;41.572;24.730;2023-12-20T05:29:15;69.73;;;40.43;;
59273;SDS011;45044;41.572;24.730;2023-12-20T05:31:42;64.40;;;37.57;;
59273;SDS011;45044;41.572;24.730;2023-12-20T05:34:09;59.13;;;36.20;;
59273;SDS011;45044;41.572;24.730;2023-12-20T05:36:36;68.00;;;37.60;;
59273;SDS011;45044;41.572;24.730;2023-12-20T05:39:03;59.43;;;36.70;;
59273;SDS011;45044;41.572;24.730;2023-12-20T05:41:32;64.07;;;38.53;;
59273;SDS011;45044;41.572;24.730;2023-12-20T05:44:02;69.47;;;40.93;;
59273;SDS011;45044;41.572;24.730;2023-12-20T05:46:31;75.13;;;42.53;;
59273;SDS011;45044;41.572;24.730;2023-12-20T05:48:57;66.53;;;40.80;;
59273;SDS011;45044;41.572;24.730;2023-12-20T05:51:24;76.40;;;43.10;;
59273;SDS011;45044;41.572;24.730;2023-12-20T05:53:54;69.43;;;41.73;;
59273;SDS011;45044;41.572;24.730;2023-12-20T05:56:22;74.57;;;42.60;;
59273;SDS011;45044;41.572;24.730;2023-12-20T05:58:49;73.57;;;41.97;;
59273;SDS011;45044;41.572;24.730;2023-12-20T06:01:18;78.07;;;47.10;;
59273;SDS011;45044;41.572;24.730;2023-12-20T06:03:45;87.00;;;48.07;;
59273;SDS011;45044;41.572;24.730;2023-12-20T06:06:15;93.77;;;51.87;;
59273;SDS011;45044;41.572;24.730;2023-12-20T06:08:43;449.63;;;192.97;;
59273;SDS011;45044;41.572;24.730;2023-12-20T06:11:10;219.30;;;98.10;;
59273;SDS011;45044;41.572;24.730;2023-12-20T06:13:37;128.77;;;67.87;;
59273;SDS011;45044;41.572;24.730;2023-12-20T06:16:05;143.53;;;70.53;;
59273;SDS011;45044;41.572;24.730;2023-12-20T06:18:34;147.23;;;70.63;;
59273;SDS011;45044;41.572;24.730;2023-12-20T06:21:01;154.60;;;75.73;;
59273;SDS011;45044;41.572;24.730;2023-12-20T06:23:28;184.00;;;90.03;;
59273;SDS011;45044;41.572;24.730;2023-12-20T06:25:55;126.33;;;66.43;;
59273;SDS011;45044;41.572;24.730;2023-12-20T06:28:22;117.00;;;64.13;;
59273;SDS011;45044;41.572;24.730;2023-12-20T06:30:49;130.67;;;63.97;;
59273;SDS011;45044;41.572;24.730;2023-12-20T06:33:16;130.10;;;69.33;;
59273;SDS011;45044;41.572;24.730;2023-12-20T06:35:45;116.67;;;65.67;;
59273;SDS011;45044;41.572;24.730;2023-12-20T06:38:12;116.37;;;62.10;;
59273;SDS011;45044;41.572;24.730;2023-12-20T06:40:38;124.20;;;68.17;;
59273;SDS011;45044;41.572;24.730;2023-12-20T06:43:05;119.10;;;67.03;;
59273;SDS011;45044;41.572;24.730;2023-12-20T06:45:46;124.30;;;67.07;;
59273;SDS011;45044;41.572;24.730;2023-12-20T06:48:13;116.73;;;64.57;;
59273;SDS011;45044;41.572;24.730;2023-12-20T06:50:40;77.07;;;43.07;;
59273;SDS011;45044;41.572;24.730;2023-12-20T06:53:07;67.33;;;42.97;;
59273;SDS011;45044;41.572;24.730;2023-12-20T06:55:35;74.13;;;43.37;;
59273;SDS011;45044;41.572;24.730;2023-12-20T06:58:04;87.17;;;50.83;;
59273;SDS011;45044;41.572;24.730;2023-12-20T07:00:32;134.13;;;72.67;;
59273;SDS011;45044;41.572;24.730;2023-12-20T07:02:59;110.30;;;63.13;;
59273;SDS011;45044;41.572;24.730;2023-12-20T07:05:26;142.77;;;78.93;;
59273;SDS011;45044;41.572;24.730;2023-12-20T07:07:53;120.63;;;70.00;;
59273;SDS011;45044;41.572;24.730;2023-12-20T07:10:20;128.35;;;80.78;;
59273;SDS011;45044;41.572;24.730;2023-12-20T07:12:47;141.75;;;82.32;;
59273;SDS011;45044;41.572;24.730;2023-12-20T07:15:15;133.93;;;74.55;;
59273;SDS011;45044;41.572;24.730;2023-12-20T07:17:42;119.30;;;71.32;;
59273;SDS011;45044;41.572;24.730;2023-12-20T07:20:11;131.23;;;79.05;;
59273;SDS011;45044;41.572;24.730;2023-12-20T07:22:38;114.55;;;71.00;;
59273;SDS011;45044;41.572;24.730;2023-12-20T07:25:06;121.10;;;76.55;;
59273;SDS011;45044;41.572;24.730;2023-12-20T07:27:33;83.75;;;57.85;;
59273;SDS011;45044;41.572;24.730;2023-12-20T07:30:01;94.43;;;58.28;;
59273;SDS011;45044;41.572;24.730;2023-12-20T07:32:29;102.50;;;65.53;;
59273;SDS011;45044;41.572;24.730;2023-12-20T07:34:56;97.90;;;64.05;;
59273;SDS011;45044;41.572;24.730;2023-12-20T07:37:23;94.65;;;67.30;;
59273;SDS011;45044;41.572;24.730;2023-12-20T07:39:50;144.38;;;88.72;;
59273;SDS011;45044;41.572;24.730;2023-12-20T07:42:17;99.53;;;64.70;;
59273;SDS011;45044;41.572;24.730;2023-12-20T07:44:44;126.38;;;77.45;;
59273;SDS011;45044;41.572;24.730;2023-12-20T07:47:13;72.97;;;47.28;;
59273;SDS011;45044;41.572;24.730;2023-12-20T07:49:46;77.53;;;48.85;;
59273;SDS011;45044;41.572;24.730;2023-12-20T07:52:18;73.90;;;48.75;;
59273;SDS011;45044;41.572;24.730;2023-12-20T07:54:47;54.90;;;36.75;;
59273;SDS011;45044;41.572;24.730;2023-12-20T07:57:14;55.60;;;38.55;;
59273;SDS011;45044;41.572;24.730;2023-12-20T07:59:41;63.55;;;46.50;;
59273;SDS011;45044;41.572;24.730;2023-12-20T08:02:08;102.25;;;64.30;;
59273;SDS011;45044;41.572;24.730;2023-12-20T08:04:35;82.47;;;52.20;;
59273;SDS011;45044;41.572;24.730;2023-12-20T08:07:03;78.72;;;52.38;;
59273;SDS011;45044;41.572;24.730;2023-12-20T08:09:30;79.80;;;53.08;;
59273;SDS011;45044;41.572;24.730;2023-12-20T08:12:02;62.88;;;44.67;;
59273;SDS011;45044;41.572;24.730;2023-12-20T08:14:29;61.22;;;44.63;;
59273;SDS011;45044;41.572;24.730;2023-12-20T08:16:56;55.72;;;41.60;;
59273;SDS011;45044;41.572;24.730;2023-12-20T08:19:23;59.80;;;44.50;;
59273;SDS011;45044;41.572;24.730;2023-12-20T08:21:50;60.25;;;42.50;;
59273;SDS011;45044;41.572;24.730;2023-12-20T08:24:17;60.97;;;41.17;;
59273;SDS011;45044;41.572;24.730;2023-12-20T08:26:43;44.08;;;33.35;;
59273;SDS011;45044;41.572;24.730;2023-12-20T08:29:12;43.42;;;31.50;;
59273;SDS011;45044;41.572;24.730;2023-12-20T08:31:40;214.63;;;114.75;;
59273;SDS011;45044;41.572;24.730;2023-12-20T08:34:06;124.32;;;67.88;;
59273;SDS011;45044;41.572;24.730;2023-12-20T08:36:34;77.65;;;51.67;;
59273;SDS011;45044;41.572;24.730;2023-12-20T08:39:01;50.53;;;39.63;;
59273;SDS011;45044;41.572;24.730;2023-12-20T08:41:30;67.38;;;45.10;;
59273;SDS011;45044;41.572;24.730;2023-12-20T08:43:57;53.15;;;38.53;;
59273;SDS011;45044;41.572;24.730;2023-12-20T08:46:23;57.00;;;39.03;;
59273;SDS011;45044;41.572;24.730;2023-12-20T08:48:50;53.17;;;38.47;;
59273;SDS011;45044;41.572;24.730;2023-12-20T08:51:18;54.63;;;38.60;;
59273;SDS011;45044;41.572;24.730;2023-12-20T08:53:46;62.53;;;44.03;;
59273;SDS011;45044;41.572;24.730;2023-12-20T08:56:14;51.63;;;36.90;;
59273;SDS011;45044;41.572;24.730;2023-12-20T08:58:47;55.30;;;42.15;;
59273;SDS011;45044;41.572;24.730;2023-12-20T09:01:14;59.92;;;39.22;;
59273;SDS011;45044;41.572;24.730;2023-12-20T09:03:42;56.35;;;40.25;;
59273;SDS011;45044;41.572;24.730;2023-12-20T09:06:09;61.75;;;43.33;;
59273;SDS011;45044;41.572;24.730;2023-12-20T09:08:36;53.60;;;40.55;;
59273;SDS011;45044;41.572;24.730;2023-12-20T09:11:04;58.88;;;43.78;;
59273;SDS011;45044;41.572;24.730;2023-12-20T09:13:32;41.90;;;31.15;;
59273;SDS011;45044;41.572;24.730;2023-12-20T09:15:59;44.20;;;29.52;;
59273;SDS011;45044;41.572;24.730;2023-12-20T09:18:27;48.80;;;35.22;;
59273;SDS011;45044;41.572;24.730;2023-12-20T09:20:54;53.88;;;36.58;;
59273;SDS011;45044;41.572;24.730;2023-12-20T09:23:24;43.47;;;32.90;;
59273;SDS011;45044;41.572;24.730;2023-12-20T09:25:53;22.90;;;12.40;;
59273;SDS011;45044;41.572;24.730;2023-12-20T09:28:23;21.15;;;10.95;;
59273;SDS011;45044;41.572;24.730;2023-12-20T09:30:50;8.25;;;4.50;;
59273;SDS011;45044;41.572;24.730;2023-12-20T09:33:17;24.30;;;17.50;;
59273;SDS011;45044;41.572;24.730;2023-12-20T09:35:44;34.03;;;21.58;;
59273;SDS011;45044;41.572;24.730;2023-12-20T09:38:11;14.10;;;6.18;;
59273;SDS011;45044;41.572;24.730;2023-12-20T09:40:41;6.63;;;2.35;;
59273;SDS011;45044;41.572;24.730;2023-12-20T09:43:10;3.10;;;1.45;;
59273;SDS011;45044;41.572;24.730;2023-12-20T09:45:40;6.13;;;1.90;;
59273;SDS011;45044;41.572;24.730;2023-12-20T09:48:08;3.50;;;1.60;;
59273;SDS011;45044;41.572;24.730;2023-12-20T09:50:38;7.20;;;3.13;;
59273;SDS011;45044;41.572;24.730;2023-12-20T09:53:07;4.78;;;2.50;;
59273;SDS011;45044;41.572;24.730;2023-12-20T09:55:36;4.03;;;1.83;;
59273;SDS011;45044;41.572;24.730;2023-12-20T09:58:04;4.40;;;1.80;;
59273;SDS011;45044;41.572;24.730;2023-12-20T10:00:32;4.50;;;1.63;;
59273;SDS011;45044;41.572;24.730;2023-12-20T10:03:00;5.30;;;2.65;;
59273;SDS011;45044;41.572;24.730;2023-12-20T10:05:28;2.65;;;0.95;;
59273;SDS011;45044;41.572;24.730;2023-12-20T10:07:57;3.55;;;1.40;;
59273;SDS011;45044;41.572;24.730;2023-12-20T10:10:25;3.05;;;1.60;;
59273;SDS011;45044;41.572;24.730;2023-12-20T10:13:07;1.27;;;0.50;;
59273;SDS011;45044;41.572;24.730;2023-12-20T10:15:36;2.55;;;1.40;;
59273;SDS011;45044;41.572;24.730;2023-12-20T10:18:04;3.38;;;1.50;;
59273;SDS011;45044;41.572;24.730;2023-12-20T10:20:31;1.33;;;0.63;;
59273;SDS011;45044;41.572;24.730;2023-12-20T10:22:59;0.40;;;0.30;;
59273;SDS011;45044;41.572;24.730;2023-12-20T10:25:27;1.17;;;0.60;;
59273;SDS011;45044;41.572;24.730;2023-12-20T10:28:14;0.95;;;0.70;;
59273;SDS011;45044;41.572;24.730;2023-12-20T10:30:45;0.95;;;0.60;;
59273;SDS011;45044;41.572;24.730;2023-12-20T10:33:12;6.82;;;2.75;;
59273;SDS011;45044;41.572;24.730;2023-12-20T10:35:39;4.05;;;1.48;;
59273;SDS011;45044;41.572;24.730;2023-12-20T10:38:12;2.75;;;1.25;;
59273;SDS011;45044;41.572;24.730;2023-12-20T10:40:41;0.75;;;0.50;;
59273;SDS011;45044;41.572;24.730;2023-12-20T10:43:11;1.52;;;0.60;;
59273;SDS011;45044;41.572;24.730;2023-12-20T10:45:38;1.90;;;1.05;;
59273;SDS011;45044;41.572;24.730;2023-12-20T10:48:09;0.80;;;0.40;;
59273;SDS011;45044;41.572;24.730;2023-12-20T10:50:37;0.70;;;0.60;;
59273;SDS011;45044;41.572;24.730;2023-12-20T10:53:05;2.25;;;1.23;;
59273;SDS011;45044;41.572;24.730;2023-12-20T10:55:33;2.42;;;0.98;;
59273;SDS011;45044;41.572;24.730;2023-12-20T10:58:01;2.72;;;1.20;;
59273;SDS011;45044;41.572;24.730;2023-12-20T11:00:33;1.15;;;0.50;;
59273;SDS011;45044;41.572;24.730;2023-12-20T11:03:05;1.30;;;0.70;;
59273;SDS011;45044;41.572;24.730;2023-12-20T11:08:17;0.45;;;0.40;;
59273;SDS011;45044;41.572;24.730;2023-12-20T11:11:03;1.13;;;0.50;;
59273;SDS011;45044;41.572;24.730;2023-12-20T11:13:40;0.90;;;0.47;;
59273;SDS011;45044;41.572;24.730;2023-12-20T11:16:16;0.85;;;0.50;;
59273;SDS011;45044;41.572;24.730;2023-12-20T11:18:45;1.77;;;1.15;;
59273;SDS011;45044;41.572;24.730;2023-12-20T11:21:12;11.65;;;6.40;;
59273;SDS011;45044;41.572;24.730;2023-12-20T11:23:40;10.50;;;5.88;;
59273;SDS011;45044;41.572;24.730;2023-12-20T11:26:08;6.85;;;3.65;;
59273;SDS011;45044;41.572;24.730;2023-12-20T11:28:35;7.65;;;3.53;;
59273;SDS011;45044;41.572;24.730;2023-12-20T11:31:03;2.30;;;1.00;;
59273;SDS011;45044;41.572;24.730;2023-12-20T11:33:36;15.15;;;8.65;;
59273;SDS011;45044;41.572;24.730;2023-12-20T11:36:12;12.70;;;6.50;;
59273;SDS011;45044;41.572;24.730;2023-12-20T11:41:48;11.80;;;6.30;;
59273;SDS011;45044;41.572;24.730;2023-12-20T11:44:17;2.65;;;0.90;;
59273;SDS011;45044;41.572;24.730;2023-12-20T11:46:44;13.48;;;8.80;;
59273;SDS011;45044;41.572;24.730;2023-12-20T11:49:13;1.83;;;0.80;;
59273;SDS011;45044;41.572;24.730;2023-12-20T11:51:41;7.55;;;4.97;;
59273;SDS011;45044;41.572;24.730;2023-12-20T11:54:08;3.95;;;2.17;;
59273;SDS011;45044;41.572;24.730;2023-12-20T11:56:36;4.72;;;2.67;;
59273;SDS011;45044;41.572;24.730;2023-12-20T11:59:03;8.65;;;4.50;;
59273;SDS011;45044;41.572;24.730;2023-12-20T12:01:48;3.60;;;1.60;;
59273;SDS011;45044;41.572;24.730;2023-12-20T12:04:17;1.08;;;0.30;;
59273;SDS011;45044;41.572;24.730;2023-12-20T12:06:44;1.63;;;0.95;;
59273;SDS011;45044;41.572;24.730;2023-12-20T12:09:16;4.97;;;2.47;;
59273;SDS011;45044;41.572;24.730;2023-12-20T12:11:43;1.88;;;1.20;;
59273;SDS011;45044;41.572;24.730;2023-12-20T12:14:10;2.20;;;1.08;;
59273;SDS011;45044;41.572;24.730;2023-12-20T12:16:37;8.98;;;4.68;;
59273;SDS011;45044;41.572;24.730;2023-12-20T12:19:04;10.00;;;3.85;;
59273;SDS011;45044;41.572;24.730;2023-12-20T12:21:31;7.72;;;3.33;;
59273;SDS011;45044;41.572;24.730;2023-12-20T12:24:06;2.65;;;0.85;;
59273;SDS011;45044;41.572;24.730;2023-12-20T12:26:34;1.63;;;0.90;;
59273;SDS011;45044;41.572;24.730;2023-12-20T12:29:01;1.67;;;0.85;;
59273;SDS011;45044;41.572;24.730;2023-12-20T12:31:27;1.48;;;0.90;;
59273;SDS011;45044;41.572;24.730;2023-12-20T12:33:55;0.77;;;0.55;;
59273;SDS011;45044;41.572;24.730;2023-12-20T12:36:23;9.10;;;3.15;;
59273;SDS011;45044;41.572;24.730;2023-12-20T12:38:50;5.45;;;2.35;;
59273;SDS011;45044;41.572;24.730;2023-12-20T12:41:17;2.95;;;1.10;;
59273;SDS011;45044;41.572;24.730;2023-12-20T12:43:44;1.42;;;0.50;;
59273;SDS011;45044;41.572;24.730;2023-12-20T12:46:10;3.90;;;1.65;;
59273;SDS011;45044;41.572;24.730;2023-12-20T12:48:38;7.15;;;3.47;;
59273;SDS011;45044;41.572;24.730;2023-12-20T12:51:08;8.38;;;2.42;;
59273;SDS011;45044;41.572;24.730;2023-12-20T12:53:39;13.45;;;7.68;;
59273;SDS011;45044;41.572;24.730;2023-12-20T12:56:06;7.43;;;3.67;;
59273;SDS011;45044;41.572;24.730;2023-12-20T12:58:34;10.70;;;4.43;;
59273;SDS011;45044;41.572;24.730;2023-12-20T13:01:01;4.38;;;1.60;;
59273;SDS011;45044;41.572;24.730;2023-12-20T13:03:30;13.60;;;4.80;;
59273;SDS011;45044;41.572;24.730;2023-12-20T13:05:57;12.27;;;4.95;;
59273;SDS011;45044;41.572;24.730;2023-12-20T13:08:24;2.90;;;1.25;;
59273;SDS011;45044;41.572;24.730;2023-12-20T13:10:50;3.78;;;2.00;;
59273;SDS011;45044;41.572;24.730;2023-12-20T13:13:17;14.00;;;6.30;;
59273;SDS011;45044;41.572;24.730;2023-12-20T13:15:45;8.93;;;3.55;;
59273;SDS011;45044;41.572;24.730;2023-12-20T13:18:18;4.95;;;2.05;;
59273;SDS011;45044;41.572;24.730;2023-12-20T13:20:45;22.40;;;10.00;;
59273;SDS011;45044;41.572;24.730;2023-12-20T13:23:12;2.63;;;1.20;;
59273;SDS011;45044;41.572;24.730;2023-12-20T13:25:39;8.07;;;2.75;;
59273;SDS011;45044;41.572;24.730;2023-12-20T13:28:07;3.28;;;1.23;;
59273;SDS011;45044;41.572;24.730;2023-12-20T13:30:34;13.93;;;8.02;;
59273;SDS011;45044;41.572;24.730;2023-12-20T13:33:02;4.18;;;2.58;;
59273;SDS011;45044;41.572;24.730;2023-12-20T13:35:29;7.57;;;4.93;;
59273;SDS011;45044;41.572;24.730;2023-12-20T13:37:57;6.30;;;4.05;;
59273;SDS011;45044;41.572;24.730;2023-12-20T13:40:24;82.95;;;37.90;;
59273;SDS011;45044;41.572;24.730;2023-12-20T13:42:51;24.42;;;12.93;;
59273;SDS011;45044;41.572;24.730;2023-12-20T13:45:18;24.20;;;15.68;;
59273;SDS011;45044;41.572;24.730;2023-12-20T13:47:45;10.98;;;6.18;;
59273;SDS011;45044;41.572;24.730;2023-12-20T13:50:12;6.95;;;3.40;;
59273;SDS011;45044;41.572;24.730;2023-12-20T13:52:39;30.48;;;13.70;;
59273;SDS011;45044;41.572;24.730;2023-12-20T13:55:06;9.57;;;4.90;;
59273;SDS011;45044;41.572;24.730;2023-12-20T13:57:35;5.75;;;3.20;;
59273;SDS011;45044;41.572;24.730;2023-12-20T14:00:20;29.95;;;17.33;;
59273;SDS011;45044;41.572;24.730;2023-12-20T14:02:47;18.92;;;9.57;;
59273;SDS011;45044;41.572;24.730;2023-12-20T14:05:14;18.58;;;9.85;;
59273;SDS011;45044;41.572;24.730;2023-12-20T14:07:44;11.93;;;6.43;;
59273;SDS011;45044;41.572;24.730;2023-12-20T14:10:12;12.10;;;7.18;;
59273;SDS011;45044;41.572;24.730;2023-12-20T14:12:41;21.90;;;11.13;;
59273;SDS011;45044;41.572;24.730;2023-12-20T14:15:08;39.35;;;21.15;;
59273;SDS011;45044;41.572;24.730;2023-12-20T14:17:38;46.58;;;25.80;;
59273;SDS011;45044;41.572;24.730;2023-12-20T14:20:06;18.23;;;11.13;;
59273;SDS011;45044;41.572;24.730;2023-12-20T14:22:34;25.58;;;14.80;;
59273;SDS011;45044;41.572;24.730;2023-12-20T14:25:02;27.10;;;15.13;;